createdAt,value
2022-12-17T00:00:54.696Z,71.85
2022-12-17T00:02:16.998Z,72.75
2022-12-17T00:03:37.867Z,77.20
2022-12-17T00:04:58.572Z,79.80
2022-12-17T00:06:18.850Z,72.32
2022-12-17T00:07:39.783Z,65.60
2022-12-17T00:09:00.175Z,69.80
2022-12-17T00:10:20.748Z,77.38
2022-12-17T00:11:41.303Z,69.95
2022-12-17T00:13:01.586Z,74.10
2022-12-17T00:14:21.871Z,81.50
2022-12-17T00:15:47.579Z,73.65
2022-12-17T00:17:08.174Z,69.07
2022-12-17T00:18:28.480Z,80.65
2022-12-17T00:19:48.699Z,76.93
2022-12-17T00:21:17.388Z,77.80
2022-12-17T00:22:37.699Z,73.97
2022-12-17T00:23:58.002Z,79.80
2022-12-17T00:25:18.385Z,77.72
2022-12-17T00:26:40.128Z,81.65
2022-12-17T00:28:00.577Z,79.55
2022-12-17T00:29:21.152Z,75.00
2022-12-17T00:30:41.752Z,79.63
2022-12-17T00:32:02.291Z,70.20
2022-12-17T00:33:22.734Z,70.65
2022-12-17T00:34:42.826Z,71.70
2022-12-17T00:36:08.739Z,71.45
2022-12-17T00:37:29.034Z,65.50
2022-12-17T00:38:49.555Z,68.40
2022-12-17T00:40:10.339Z,49.50
2022-12-17T00:41:30.612Z,62.58
2022-12-17T00:42:50.868Z,59.92
2022-12-17T00:45:32.472Z,59.88
2022-12-17T00:46:53.173Z,60.53
2022-12-17T00:48:13.685Z,59.42
2022-12-17T00:49:35.730Z,64.73
2022-12-17T00:50:55.916Z,60.00
2022-12-17T00:52:17.281Z,65.15
2022-12-17T00:53:38.600Z,70.43
2022-12-17T00:54:59.285Z,58.33
2022-12-17T00:56:19.588Z,63.45
2022-12-17T00:57:39.831Z,59.58
2022-12-17T00:59:00.394Z,63.10
2022-12-17T01:00:21.248Z,47.88
2022-12-17T01:01:41.697Z,47.58
2022-12-17T01:03:02.212Z,44.10
2022-12-17T01:04:22.581Z,48.97
2022-12-17T01:05:43.055Z,48.35
2022-12-17T01:07:03.394Z,52.05
2022-12-17T01:08:28.401Z,46.55
2022-12-17T01:09:48.533Z,52.80
2022-12-17T01:11:09.150Z,50.42
2022-12-17T01:12:29.409Z,52.10
2022-12-17T01:13:49.807Z,51.55
2022-12-17T01:15:10.402Z,50.95
2022-12-17T01:16:32.591Z,44.38
2022-12-17T01:17:52.954Z,41.05
2022-12-17T01:19:17.635Z,42.30
2022-12-17T01:21:59.262Z,47.15
2022-12-17T01:24:39.923Z,45.03
2022-12-17T01:26:00.514Z,29.92
2022-12-17T01:27:20.795Z,40.53
2022-12-17T01:28:44.437Z,40.90
2022-12-17T01:30:04.997Z,43.45
2022-12-17T01:31:28.131Z,40.22
2022-12-17T01:32:50.615Z,43.80
2022-12-17T01:34:11.157Z,40.72
2022-12-17T01:35:31.700Z,37.65
2022-12-17T01:36:52.216Z,41.10
2022-12-17T01:38:12.685Z,34.70
2022-12-17T01:39:33.174Z,38.00
2022-12-17T01:40:53.685Z,36.03
2022-12-17T01:42:13.929Z,33.75
2022-12-17T01:43:53.454Z,31.98
2022-12-17T01:45:14.336Z,28.92
2022-12-17T01:46:34.567Z,29.20
2022-12-17T01:48:17.541Z,26.23
2022-12-17T01:49:40.059Z,30.45
2022-12-17T01:51:08.255Z,28.30
2022-12-17T01:52:30.838Z,27.95
2022-12-17T01:53:54.931Z,31.27
2022-12-17T01:55:17.317Z,30.92
2022-12-17T01:56:38.009Z,29.55
2022-12-17T01:57:58.737Z,28.48
2022-12-17T01:59:20.006Z,33.55
2022-12-17T02:00:40.597Z,28.95
2022-12-17T02:02:01.495Z,28.95
2022-12-17T02:03:22.807Z,28.52
2022-12-17T02:04:43.793Z,30.33
2022-12-17T02:06:07.947Z,27.00
2022-12-17T02:07:40.669Z,29.75
2022-12-17T02:09:17.834Z,26.95
2022-12-17T02:10:59.967Z,31.17
2022-12-17T02:12:28.682Z,26.20
2022-12-17T02:13:53.955Z,26.88
2022-12-17T02:15:23.811Z,32.63
2022-12-17T02:16:53.080Z,30.23
2022-12-17T02:18:17.928Z,30.33
2022-12-17T02:20:04.786Z,33.63
2022-12-17T02:21:26.039Z,32.97
2022-12-17T02:23:06.589Z,29.70
2022-12-17T02:24:30.962Z,28.73
2022-12-17T02:26:07.031Z,25.92
2022-12-17T02:27:36.666Z,30.63
2022-12-17T02:29:00.118Z,29.38
2022-12-17T02:30:24.716Z,35.40
2022-12-17T02:32:58.196Z,29.48
2022-12-17T02:34:18.851Z,32.65
2022-12-17T02:35:46.397Z,26.50
2022-12-17T02:37:06.815Z,28.63
2022-12-17T02:38:38.032Z,27.23
2022-12-17T02:39:58.681Z,29.80
2022-12-17T02:41:19.545Z,26.27
2022-12-17T02:42:42.518Z,33.22
2022-12-17T02:44:03.311Z,26.27
2022-12-17T02:45:25.383Z,28.92
2022-12-17T02:46:45.491Z,23.70
2022-12-17T02:48:06.010Z,26.75
2022-12-17T02:49:26.539Z,29.42
2022-12-17T02:50:47.105Z,18.85
2022-12-17T02:52:09.971Z,27.98
2022-12-17T02:53:31.378Z,28.98
2022-12-17T02:56:29.893Z,32.00
2022-12-17T02:57:53.743Z,24.83
2022-12-17T02:59:14.581Z,27.63
2022-12-17T03:00:35.154Z,29.73
2022-12-17T03:01:55.510Z,27.60
2022-12-17T03:03:16.196Z,28.20
2022-12-17T03:04:36.982Z,26.15
2022-12-17T03:05:57.375Z,23.70
2022-12-17T03:07:17.843Z,22.00
2022-12-17T03:08:38.383Z,24.57
2022-12-17T03:09:58.778Z,21.40
2022-12-17T03:11:19.547Z,18.27
2022-12-17T03:12:40.030Z,23.50
2022-12-17T03:14:00.131Z,15.68
2022-12-17T03:15:20.403Z,23.13
2022-12-17T03:16:40.720Z,24.02
2022-12-17T03:18:00.941Z,20.92
2022-12-17T03:19:22.326Z,16.52
2022-12-17T03:22:03.121Z,17.88
2022-12-17T03:23:25.723Z,20.80
2022-12-17T03:24:46.374Z,19.55
2022-12-17T03:26:06.526Z,20.60
2022-12-17T03:27:27.126Z,22.17
2022-12-17T03:28:47.490Z,20.88
2022-12-17T03:30:07.765Z,19.42
2022-12-17T03:31:27.985Z,19.60
2022-12-17T03:32:48.318Z,15.80
2022-12-17T03:34:08.716Z,21.38
2022-12-17T03:35:28.970Z,16.08
2022-12-17T03:36:50.656Z,18.40
2022-12-17T03:38:11.007Z,17.67
2022-12-17T03:39:31.407Z,15.55
2022-12-17T03:40:51.960Z,22.58
2022-12-17T03:42:12.357Z,23.60
2022-12-17T03:43:32.722Z,19.88
2022-12-17T03:44:53.199Z,21.25
2022-12-17T03:46:13.675Z,18.98
2022-12-17T03:47:33.966Z,20.63
2022-12-17T03:48:54.665Z,21.15
2022-12-17T03:50:25.741Z,23.75
2022-12-17T03:51:45.961Z,17.73
2022-12-17T03:53:06.150Z,20.10
2022-12-17T03:54:26.460Z,16.92
2022-12-17T03:55:46.827Z,16.00
2022-12-17T03:57:09.582Z,17.80
2022-12-17T03:58:33.539Z,21.63
2022-12-17T03:59:53.827Z,19.97
2022-12-17T04:01:14.001Z,21.52
2022-12-17T04:02:34.506Z,20.50
2022-12-17T04:03:54.956Z,16.65
2022-12-17T04:05:19.948Z,22.38
2022-12-17T04:06:41.016Z,22.38
2022-12-17T04:08:01.328Z,21.58
2022-12-17T04:09:22.079Z,21.30
2022-12-17T04:10:42.915Z,17.88
2022-12-17T04:12:03.351Z,18.38
2022-12-17T04:13:24.607Z,18.10
2022-12-17T04:16:05.075Z,14.77
2022-12-17T04:17:25.677Z,16.80
2022-12-17T04:18:46.254Z,20.10
2022-12-17T04:20:06.940Z,21.48
2022-12-17T04:21:27.698Z,18.15
2022-12-17T04:22:47.910Z,16.08
2022-12-17T04:24:08.288Z,21.63
2022-12-17T04:25:28.698Z,15.48
2022-12-17T04:26:49.186Z,19.10
2022-12-17T04:28:09.740Z,18.37
2022-12-17T04:29:30.354Z,12.32
2022-12-17T04:30:50.862Z,18.13
2022-12-17T04:32:11.426Z,17.17
2022-12-17T04:33:31.746Z,12.95
2022-12-17T04:34:51.613Z,16.75
2022-12-17T04:36:11.685Z,18.65
2022-12-17T04:37:31.896Z,18.50
2022-12-17T04:38:52.147Z,22.90
2022-12-17T04:40:12.403Z,18.05
2022-12-17T04:41:32.695Z,20.35
2022-12-17T04:42:52.963Z,21.67
2022-12-17T04:44:13.114Z,18.63
2022-12-17T04:45:33.864Z,20.20
2022-12-17T04:46:53.982Z,22.15
2022-12-17T04:48:22.642Z,18.10
2022-12-17T04:49:42.964Z,21.95
2022-12-17T04:51:03.688Z,22.30
2022-12-17T04:52:24.145Z,20.08
2022-12-17T04:53:44.411Z,14.43
2022-12-17T04:55:04.695Z,21.85
2022-12-17T04:56:25.352Z,20.75
2022-12-17T04:57:45.803Z,22.98
2022-12-17T04:59:06.223Z,23.03
2022-12-17T05:00:27.351Z,22.92
2022-12-17T05:01:47.995Z,20.00
2022-12-17T05:03:08.236Z,20.13
2022-12-17T05:04:28.751Z,23.05
2022-12-17T05:05:49.358Z,24.08
2022-12-17T05:07:09.586Z,22.38
2022-12-17T05:08:29.792Z,24.67
2022-12-17T05:09:50.100Z,31.73
2022-12-17T05:11:10.563Z,26.70
2022-12-17T05:12:31.056Z,25.83
2022-12-17T05:13:51.526Z,26.90
2022-12-17T05:15:11.664Z,23.35
2022-12-17T05:16:32.340Z,27.45
2022-12-17T05:17:53.038Z,26.98
2022-12-17T05:19:13.570Z,18.45
2022-12-17T05:20:34.158Z,29.48
2022-12-17T05:21:54.322Z,27.75
2022-12-17T05:23:14.623Z,56.72
2022-12-17T05:24:39.739Z,37.30
2022-12-17T05:26:00.503Z,30.35
2022-12-17T05:27:20.669Z,26.42
2022-12-17T05:28:41.159Z,28.23
2022-12-17T05:30:01.644Z,24.38
2022-12-17T05:31:21.851Z,27.73
2022-12-17T05:32:42.138Z,26.10
2022-12-17T05:34:02.454Z,23.88
2022-12-17T05:35:23.159Z,24.90
2022-12-17T05:36:44.168Z,25.35
2022-12-17T05:38:04.333Z,24.83
2022-12-17T05:39:24.850Z,22.35
2022-12-17T05:40:45.408Z,18.90
2022-12-17T05:42:06.000Z,24.38
2022-12-17T05:43:30.147Z,23.95
2022-12-17T05:44:50.620Z,21.83
2022-12-17T05:46:11.009Z,23.85
2022-12-17T05:47:31.257Z,23.35
2022-12-17T05:48:52.671Z,24.98
2022-12-17T05:51:38.342Z,21.90
2022-12-17T05:52:59.034Z,30.13
2022-12-17T05:54:19.634Z,25.92
2022-12-17T05:55:40.172Z,25.85
2022-12-17T05:57:00.875Z,28.33
2022-12-17T05:58:26.177Z,30.10
2022-12-17T05:59:46.824Z,31.63
2022-12-17T06:01:07.093Z,31.17
2022-12-17T06:02:27.314Z,27.63
2022-12-17T06:03:47.950Z,31.33
2022-12-17T06:05:08.438Z,26.02
2022-12-17T06:06:28.852Z,29.17
2022-12-17T06:07:49.344Z,34.25
2022-12-17T06:09:09.791Z,42.80
2022-12-17T06:10:30.063Z,67.10
2022-12-17T06:11:50.493Z,64.97
2022-12-17T06:13:14.894Z,70.27
2022-12-17T06:14:35.157Z,66.82
2022-12-17T06:15:55.852Z,48.20
2022-12-17T06:17:16.489Z,80.55
2022-12-17T06:18:36.814Z,86.03
2022-12-17T06:19:57.016Z,64.15
2022-12-17T06:21:17.256Z,79.35
2022-12-17T06:22:37.362Z,101.63
2022-12-17T06:23:57.901Z,118.20
2022-12-17T06:25:17.958Z,133.30
2022-12-17T06:26:38.199Z,169.20
2022-12-17T06:27:58.534Z,100.03
2022-12-17T06:29:18.889Z,60.10
2022-12-17T06:30:39.431Z,48.47
2022-12-17T06:31:59.714Z,47.58
2022-12-17T06:33:27.442Z,35.67
2022-12-17T06:34:47.737Z,30.13
2022-12-17T06:36:07.894Z,27.33
2022-12-17T06:37:28.278Z,23.83
2022-12-17T06:38:48.922Z,23.42
2022-12-17T06:40:09.282Z,28.63
2022-12-17T06:41:29.919Z,26.83
2022-12-17T06:42:50.366Z,22.77
2022-12-17T06:44:10.581Z,28.00
2022-12-17T06:45:31.106Z,22.88
2022-12-17T06:46:51.332Z,25.00
2022-12-17T06:48:14.228Z,26.15
2022-12-17T06:49:34.819Z,26.65
2022-12-17T06:50:56.741Z,28.23
2022-12-17T06:52:17.192Z,22.85
2022-12-17T06:53:38.175Z,29.67
2022-12-17T06:54:58.949Z,26.90
2022-12-17T06:56:19.277Z,23.20
2022-12-17T06:57:41.842Z,23.27
2022-12-17T06:59:24.405Z,24.63
2022-12-17T07:00:44.543Z,24.27
2022-12-17T07:02:04.914Z,23.73
2022-12-17T07:03:25.181Z,27.47
2022-12-17T07:04:45.274Z,23.15
2022-12-17T07:06:05.587Z,24.80
2022-12-17T07:07:25.807Z,24.00
2022-12-17T07:08:46.585Z,23.85
2022-12-17T07:10:12.301Z,29.52
2022-12-17T07:11:34.322Z,23.42
2022-12-17T07:12:54.691Z,25.77
2022-12-17T07:14:14.935Z,25.65
2022-12-17T07:15:35.487Z,37.30
2022-12-17T07:16:56.042Z,76.22
2022-12-17T07:18:28.514Z,80.38
2022-12-17T07:19:48.938Z,57.00
2022-12-17T07:21:11.894Z,62.07
2022-12-17T07:22:32.264Z,39.13
2022-12-17T07:23:52.761Z,46.75
2022-12-17T07:25:13.255Z,34.53
2022-12-17T07:26:33.766Z,27.40
2022-12-17T07:27:54.315Z,29.05
2022-12-17T07:29:14.753Z,30.95
2022-12-17T07:30:35.283Z,19.77
2022-12-17T07:31:55.688Z,22.60
2022-12-17T07:33:24.793Z,28.23
2022-12-17T07:34:44.970Z,24.92
2022-12-17T07:36:05.234Z,30.13
2022-12-17T07:37:25.811Z,29.95
2022-12-17T07:38:46.341Z,26.00
2022-12-17T07:40:06.597Z,31.45
2022-12-17T07:41:27.239Z,29.85
2022-12-17T07:42:47.664Z,32.15
2022-12-17T07:44:08.282Z,31.00
2022-12-17T07:45:29.264Z,35.92
2022-12-17T07:46:49.703Z,37.80
2022-12-17T07:48:13.510Z,33.30
2022-12-17T07:49:34.062Z,32.72
2022-12-17T07:50:54.365Z,36.33
2022-12-17T07:52:14.732Z,35.15
2022-12-17T07:53:35.555Z,36.92
2022-12-17T07:54:56.185Z,37.42
2022-12-17T07:56:16.983Z,37.03
2022-12-17T07:57:37.173Z,39.40
2022-12-17T07:58:57.594Z,34.03
2022-12-17T08:00:18.140Z,36.00
2022-12-17T08:01:38.922Z,31.08
2022-12-17T08:02:59.270Z,32.92
2022-12-17T08:04:19.726Z,33.38
2022-12-17T08:05:40.079Z,33.63
2022-12-17T08:07:05.480Z,33.22
2022-12-17T08:08:30.749Z,30.23
2022-12-17T08:09:53.329Z,34.83
2022-12-17T08:11:13.977Z,35.67
2022-12-17T08:12:54.052Z,35.35
2022-12-17T08:14:14.669Z,30.02
2022-12-17T08:15:45.478Z,30.02
2022-12-17T08:17:06.217Z,22.83
2022-12-17T08:18:27.020Z,32.33
2022-12-17T08:19:47.502Z,34.17
2022-12-17T08:21:07.916Z,30.93
2022-12-17T08:22:28.587Z,38.22
2022-12-17T08:23:48.910Z,38.67
2022-12-17T08:25:09.307Z,34.60
2022-12-17T08:26:29.652Z,35.45
2022-12-17T08:27:49.863Z,34.28
2022-12-17T08:29:10.133Z,34.33
2022-12-17T08:30:36.984Z,33.38
2022-12-17T08:31:57.514Z,31.42
2022-12-17T08:33:24.634Z,34.30
2022-12-17T08:34:45.159Z,29.30
2022-12-17T08:36:10.760Z,32.63
2022-12-17T08:37:31.041Z,33.88
2022-12-17T08:38:51.595Z,33.15
2022-12-17T08:41:39.475Z,32.70
2022-12-17T08:42:59.744Z,31.73
2022-12-17T08:44:22.211Z,29.80
2022-12-17T08:45:42.796Z,33.78
2022-12-17T08:47:03.939Z,22.52
2022-12-17T08:48:26.303Z,37.10
2022-12-17T08:49:46.745Z,42.72
2022-12-17T08:51:07.227Z,55.17
2022-12-17T08:52:27.608Z,59.67
2022-12-17T08:53:48.140Z,71.05
2022-12-17T08:55:08.542Z,65.65
2022-12-17T08:56:29.147Z,58.47
2022-12-17T08:57:49.380Z,38.90
2022-12-17T08:59:09.862Z,39.25
2022-12-17T09:00:31.092Z,36.45
2022-12-17T09:01:51.559Z,42.40
2022-12-17T09:03:19.884Z,39.60
2022-12-17T09:04:40.647Z,37.60
2022-12-17T09:06:02.121Z,39.20
2022-12-17T09:07:25.564Z,44.15
2022-12-17T09:08:46.051Z,35.15
2022-12-17T09:10:06.501Z,32.22
2022-12-17T09:11:27.157Z,30.98
2022-12-17T09:12:47.885Z,31.05
2022-12-17T09:14:08.533Z,31.65
2022-12-17T09:15:29.025Z,30.95
2022-12-17T09:16:49.584Z,29.77
2022-12-17T09:18:11.179Z,30.98
2022-12-17T09:19:31.783Z,28.38
2022-12-17T09:20:52.236Z,28.00
2022-12-17T09:22:12.596Z,29.65
2022-12-17T09:23:36.880Z,35.85
2022-12-17T09:24:57.484Z,29.77
2022-12-17T09:26:17.888Z,27.70
2022-12-17T09:27:38.201Z,29.38
2022-12-17T09:28:58.947Z,33.03
2022-12-17T09:30:19.262Z,29.60
2022-12-17T09:31:39.421Z,34.47
2022-12-17T09:33:00.131Z,30.30
2022-12-17T09:34:20.290Z,32.60
2022-12-17T09:35:40.871Z,33.95
2022-12-17T09:37:01.584Z,38.55
2022-12-17T09:38:22.490Z,36.45
2022-12-17T09:39:42.862Z,32.40
2022-12-17T09:41:08.321Z,33.30
2022-12-17T09:42:37.317Z,33.72
2022-12-17T09:44:04.034Z,33.10
2022-12-17T09:45:32.585Z,33.00
2022-12-17T09:47:30.656Z,36.88
2022-12-17T09:49:04.742Z,33.15
2022-12-17T09:50:32.151Z,35.10
2022-12-17T09:51:56.836Z,35.88
2022-12-17T09:53:20.442Z,39.17
2022-12-17T09:54:55.171Z,38.10
2022-12-17T09:56:20.087Z,33.75
2022-12-17T09:57:46.885Z,36.47
2022-12-17T09:59:07.239Z,43.78
2022-12-17T10:00:46.487Z,42.80
2022-12-17T10:02:06.977Z,40.42
2022-12-17T10:03:39.397Z,43.63
2022-12-17T10:05:04.414Z,41.30
2022-12-17T10:06:35.518Z,46.95
2022-12-17T10:07:57.416Z,41.78
2022-12-17T10:09:20.763Z,44.08
2022-12-17T10:10:43.050Z,45.40
2022-12-17T10:12:03.964Z,48.75
2022-12-17T10:13:30.863Z,41.25
2022-12-17T10:14:51.557Z,41.70
2022-12-17T10:16:11.986Z,37.97
2022-12-17T10:17:37.820Z,37.78
2022-12-17T10:18:58.145Z,37.08
2022-12-17T10:20:19.588Z,33.67
2022-12-17T10:23:03.130Z,35.50
2022-12-17T10:24:28.523Z,38.90
2022-12-17T10:25:48.984Z,36.80
2022-12-17T10:27:09.493Z,41.30
2022-12-17T10:28:32.515Z,28.50
2022-12-17T10:29:53.261Z,37.90
2022-12-17T10:31:15.520Z,39.58
2022-12-17T10:32:35.926Z,34.88
2022-12-17T10:33:57.996Z,39.40
2022-12-17T10:35:20.718Z,40.33
2022-12-17T10:36:42.725Z,43.72
2022-12-17T10:38:03.314Z,42.67
2022-12-17T10:39:25.326Z,42.13
2022-12-17T10:40:49.985Z,41.92
2022-12-17T10:42:10.494Z,46.30
2022-12-17T10:43:51.167Z,43.17
2022-12-17T10:45:11.874Z,39.08
2022-12-17T10:46:44.931Z,39.08
2022-12-17T10:48:05.161Z,40.63
2022-12-17T10:49:37.500Z,45.47
2022-12-17T10:51:00.050Z,36.35
2022-12-17T10:52:40.578Z,40.35
2022-12-17T10:54:08.516Z,37.90
2022-12-17T10:55:46.833Z,40.17
2022-12-17T10:57:11.869Z,41.70
2022-12-17T10:58:38.330Z,46.45
2022-12-17T10:59:58.778Z,44.10
2022-12-17T11:01:21.007Z,42.73
2022-12-17T11:02:57.583Z,42.75
2022-12-17T11:04:17.991Z,43.40
2022-12-17T11:05:59.448Z,42.35
2022-12-17T11:08:41.311Z,42.13
2022-12-17T11:10:09.634Z,43.45
2022-12-17T11:11:32.973Z,44.50
2022-12-17T11:13:15.714Z,47.33
2022-12-17T11:14:36.427Z,36.40
2022-12-17T11:16:02.310Z,30.13
2022-12-17T11:17:26.034Z,41.65
2022-12-17T11:18:58.302Z,48.28
2022-12-17T11:20:31.093Z,41.72
2022-12-17T11:22:06.292Z,46.30
2022-12-17T11:23:35.867Z,42.13
2022-12-17T11:25:26.244Z,44.67
2022-12-17T11:26:52.163Z,47.33
2022-12-17T11:28:28.834Z,43.22
2022-12-17T11:29:49.090Z,43.75
2022-12-17T11:31:22.454Z,45.83
2022-12-17T11:32:45.925Z,46.55
2022-12-17T11:34:23.523Z,49.55
2022-12-17T11:36:13.103Z,48.33
2022-12-17T11:37:44.953Z,49.55
2022-12-17T11:39:12.190Z,43.85
2022-12-17T11:40:35.470Z,52.28
2022-12-17T11:42:23.766Z,46.92
2022-12-17T11:44:02.554Z,47.00
2022-12-17T11:45:58.675Z,44.85
2022-12-17T11:47:43.885Z,51.50
2022-12-17T11:49:35.463Z,48.05
2022-12-17T11:51:07.542Z,47.08
2022-12-17T11:52:37.760Z,49.20
2022-12-17T11:54:27.722Z,50.47
2022-12-17T11:56:17.025Z,46.47
2022-12-17T11:57:48.253Z,48.33
2022-12-17T11:59:36.664Z,47.17
2022-12-17T12:01:09.152Z,50.25
2022-12-17T12:03:04.726Z,44.65
2022-12-17T12:04:34.665Z,46.40
2022-12-17T12:06:09.878Z,46.58
2022-12-17T12:07:36.354Z,58.17
2022-12-17T12:09:32.888Z,51.75
2022-12-17T12:11:18.904Z,49.40
2022-12-17T12:12:42.460Z,47.70
2022-12-17T12:14:21.601Z,46.13
2022-12-17T12:15:59.034Z,49.10
2022-12-17T12:17:41.374Z,44.90
2022-12-17T12:19:42.574Z,47.33
2022-12-17T12:21:08.668Z,46.90
2022-12-17T12:22:51.388Z,47.22
2022-12-17T12:25:02.893Z,49.13
2022-12-17T12:26:39.552Z,51.50
2022-12-17T12:28:28.964Z,49.33
2022-12-17T12:30:23.005Z,48.25
2022-12-17T12:32:05.525Z,45.25
2022-12-17T12:34:03.683Z,50.38
2022-12-17T12:35:32.384Z,43.45
2022-12-17T12:36:54.737Z,46.42
2022-12-17T12:38:15.351Z,42.35
2022-12-17T12:39:48.034Z,45.97
2022-12-17T12:41:31.799Z,50.55
2022-12-17T12:43:25.946Z,46.63
2022-12-17T12:45:07.275Z,51.80
2022-12-17T12:46:43.001Z,49.97
2022-12-17T12:48:12.559Z,41.25
2022-12-17T12:49:44.124Z,45.58
2022-12-17T12:52:42.832Z,41.78
2022-12-17T12:54:03.436Z,40.55
2022-12-17T12:55:24.489Z,41.75
2022-12-17T12:56:53.347Z,46.22
2022-12-17T12:58:20.403Z,45.17
2022-12-17T12:59:47.766Z,44.72
2022-12-17T13:01:08.509Z,45.95
2022-12-17T13:02:49.038Z,28.77
2022-12-17T13:04:12.538Z,47.63
2022-12-17T13:05:39.414Z,41.05
2022-12-17T13:07:01.948Z,37.70
2022-12-17T13:08:19.993Z,41.10
2022-12-17T13:09:30.906Z,38.40
2022-12-17T13:10:37.651Z,41.42
2022-12-17T13:11:42.478Z,42.97
2022-12-17T13:12:47.760Z,45.45
2022-12-17T13:13:56.185Z,47.60
2022-12-17T13:15:07.073Z,56.80
2022-12-17T13:16:30.439Z,52.72
2022-12-17T13:17:39.813Z,41.08
2022-12-17T13:18:41.702Z,42.67
2022-12-17T13:19:57.170Z,44.47
2022-12-17T13:21:03.196Z,42.00
2022-12-17T13:22:23.635Z,43.83
2022-12-17T13:23:32.082Z,45.83
2022-12-17T13:24:33.863Z,39.75
2022-12-17T13:25:36.410Z,51.63
2022-12-17T13:26:41.322Z,44.05
2022-12-17T13:27:43.431Z,42.03
2022-12-17T13:28:58.003Z,50.53
2022-12-17T13:30:23.841Z,49.65
2022-12-17T13:31:42.108Z,44.50
2022-12-17T13:33:21.440Z,50.03
2022-12-17T13:34:35.389Z,47.92
2022-12-17T13:35:40.048Z,56.22
2022-12-17T13:37:00.576Z,52.88
2022-12-17T13:38:33.549Z,58.50
2022-12-17T13:39:51.907Z,48.05
2022-12-17T13:41:10.540Z,51.95
2022-12-17T13:42:25.018Z,51.88
2022-12-17T13:43:32.935Z,50.88
2022-12-17T13:44:45.438Z,47.72
2022-12-17T13:45:48.322Z,50.58
2022-12-17T13:46:51.956Z,54.95
2022-12-17T13:47:55.892Z,57.72
2022-12-17T13:49:00.954Z,56.53
2022-12-17T13:50:33.808Z,64.35
2022-12-17T13:51:36.911Z,61.80
2022-12-17T13:52:38.779Z,66.05
2022-12-17T13:53:40.506Z,70.85
2022-12-17T13:54:42.501Z,63.42
